createdAt,value
2019-06-10T00:00:22.573Z,75.45
2019-06-10T00:01:22.636Z,74.77
2019-06-10T00:02:22.700Z,74.96
2019-06-10T00:03:22.781Z,74.96
2019-06-10T00:04:22.842Z,75.35
2019-06-10T00:05:22.902Z,75.63
2019-06-10T00:06:22.960Z,75.54
2019-06-10T00:07:23.029Z,76.31
2019-06-10T00:08:23.104Z,76.79
2019-06-10T00:09:23.162Z,76.59
2019-06-10T00:10:23.224Z,77.56
2019-06-10T00:11:23.288Z,77.90
2019-06-10T00:12:23.353Z,78.28
2019-06-10T00:13:23.425Z,77.71
2019-06-10T00:14:23.489Z,77.90
2019-06-10T00:15:23.545Z,78.57
2019-06-10T00:16:23.613Z,77.42
2019-06-10T00:17:23.677Z,78.38
2019-06-10T00:18:38.789Z,77.80
2019-06-10T00:19:23.813Z,77.71
2019-06-10T00:20:23.873Z,78.47
2019-06-10T00:21:23.937Z,79.14
2019-06-10T00:22:24.005Z,78.67
2019-06-10T00:23:24.089Z,79.24
2019-06-10T00:24:24.149Z,79.05
2019-06-10T00:25:24.198Z,78.86
2019-06-10T00:26:24.262Z,79.72
2019-06-10T00:27:24.326Z,79.44
2019-06-10T00:28:24.398Z,79.91
2019-06-10T00:29:24.466Z,79.53
2019-06-10T00:30:24.522Z,80.20
2019-06-10T00:31:24.586Z,79.59
2019-06-10T00:32:24.654Z,79.68
2019-06-10T00:33:24.728Z,79.11
2019-06-10T00:34:24.792Z,78.72
2019-06-10T00:35:24.846Z,78.86
2019-06-10T00:36:24.912Z,79.44
2019-06-10T00:37:24.978Z,79.88
2019-06-10T00:38:25.050Z,80.87
2019-06-10T00:39:25.138Z,81.64
2019-06-10T00:40:25.170Z,82.41
2019-06-10T00:41:25.234Z,81.51
2019-06-10T00:42:25.303Z,81.74
2019-06-10T00:43:25.378Z,82.46
2019-06-10T00:44:25.431Z,81.60
2019-06-10T00:45:25.495Z,80.35
2019-06-10T00:46:25.562Z,80.26
2019-06-10T00:47:25.627Z,80.35
2019-06-10T00:48:29.118Z,80.26
2019-06-10T00:49:25.769Z,81.60
2019-06-10T00:50:25.819Z,81.12
2019-06-10T00:51:25.883Z,79.82
2019-06-10T00:52:25.951Z,79.82
2019-06-10T00:53:26.025Z,80.49
2019-06-10T00:54:26.087Z,81.26
2019-06-10T00:55:26.143Z,80.58
2019-06-10T00:56:26.207Z,80.78
2019-06-10T00:57:26.275Z,80.30
2019-06-10T00:58:26.347Z,79.72
2019-06-10T00:59:26.412Z,79.53
2019-06-10T01:00:26.467Z,79.53
2019-06-10T01:01:26.535Z,79.44
2019-06-10T01:02:26.601Z,79.44
2019-06-10T01:03:26.671Z,80.68
2019-06-10T01:04:26.735Z,80.49
2019-06-10T01:05:26.794Z,79.63
2019-06-10T01:06:26.864Z,80.58
2019-06-10T01:07:26.927Z,81.54
2019-06-10T01:08:26.996Z,82.21
2019-06-10T01:09:27.060Z,81.93
2019-06-10T01:10:27.123Z,82.31
2019-06-10T01:11:27.440Z,82.60
2019-06-10T01:12:27.248Z,82.12
2019-06-10T01:13:27.488Z,81.64
2019-06-10T01:14:27.376Z,80.68
2019-06-10T01:15:27.440Z,80.58
2019-06-10T01:16:27.508Z,80.78
2019-06-10T01:17:27.568Z,81.07
2019-06-10T01:18:37.482Z,81.64
2019-06-10T01:19:27.708Z,82.12
2019-06-10T01:20:27.764Z,82.89
2019-06-10T01:21:27.832Z,82.79
2019-06-10T01:22:27.908Z,83.56
2019-06-10T01:23:27.969Z,83.75
2019-06-10T01:24:28.032Z,84.91
2019-06-10T01:25:28.089Z,83.56
2019-06-10T01:26:30.849Z,82.89
2019-06-10T01:27:28.221Z,82.79
2019-06-10T01:28:31.189Z,82.12
2019-06-10T01:29:28.349Z,81.93
2019-06-10T01:30:31.100Z,81.54
2019-06-10T01:31:28.481Z,81.84
2019-06-10T01:32:31.034Z,81.54
2019-06-10T01:33:28.617Z,81.64
2019-06-10T01:34:30.966Z,83.47
2019-06-10T01:35:30.601Z,83.75
2019-06-10T01:36:31.204Z,84.52
2019-06-10T01:37:30.977Z,83.94
2019-06-10T01:38:31.521Z,83.18
2019-06-10T01:39:30.901Z,83.85
2019-06-10T01:40:31.302Z,84.42
2019-06-10T01:41:30.595Z,85.19
2019-06-10T01:42:30.704Z,85.44
2019-06-10T01:43:31.818Z,85.05
2019-06-10T01:44:30.967Z,84.86
2019-06-10T01:45:31.248Z,86.15
2019-06-10T01:46:31.471Z,86.58
2019-06-10T01:47:30.992Z,86.88
2019-06-10T01:48:43.266Z,86.25
2019-06-10T01:49:30.763Z,86.58
2019-06-10T01:50:31.175Z,85.92
2019-06-10T01:51:31.683Z,85.15
2019-06-10T01:52:31.644Z,85.63
2019-06-10T01:53:31.421Z,86.21
2019-06-10T01:54:31.715Z,85.34
2019-06-10T01:55:31.206Z,85.05
2019-06-10T01:56:31.512Z,86.01
2019-06-10T01:57:30.834Z,84.86
2019-06-10T01:58:31.569Z,85.53
2019-06-10T01:59:31.187Z,86.01
2019-06-10T02:00:31.191Z,85.53
2019-06-10T02:01:30.709Z,86.01
2019-06-10T02:02:34.992Z,86.97
2019-06-10T02:03:31.401Z,87.26
2019-06-10T02:04:32.068Z,87.16
2019-06-10T02:05:31.166Z,86.88
2019-06-10T02:06:31.640Z,87.35
2019-06-10T02:07:31.964Z,87.84
2019-06-10T02:08:31.647Z,87.55
2019-06-10T02:09:31.151Z,87.45
2019-06-10T02:10:31.144Z,88.02
2019-06-10T02:11:31.731Z,87.74
2019-06-10T02:12:31.633Z,87.93
2019-06-10T02:13:33.193Z,88.79
2019-06-10T02:14:31.739Z,89.18
2019-06-10T02:15:31.573Z,88.79
2019-06-10T02:16:32.568Z,89.08
2019-06-10T02:17:31.594Z,89.47
2019-06-10T02:18:32.125Z,89.18
2019-06-10T02:19:31.623Z,89.80
2019-06-10T02:20:31.854Z,89.80
2019-06-10T02:21:31.720Z,89.71
2019-06-10T02:22:31.933Z,89.90
2019-06-10T02:23:31.878Z,89.61
2019-06-10T02:24:31.936Z,89.80
2019-06-10T02:25:31.980Z,88.65
2019-06-10T02:26:32.045Z,89.13
2019-06-10T02:27:32.109Z,89.04
2019-06-10T02:28:32.280Z,90.19
2019-06-10T02:29:32.243Z,89.71
2019-06-10T02:30:44.063Z,90.67
2019-06-10T02:31:37.567Z,90.95
2019-06-10T02:32:37.459Z,90.86
2019-06-10T02:33:36.442Z,90.28
2019-06-10T02:34:36.645Z,91.14
2019-06-10T02:35:44.208Z,90.76
2019-06-10T02:36:36.915Z,90.62
2019-06-10T02:37:37.967Z,91.00
2019-06-10T02:38:38.639Z,91.24
2019-06-10T02:39:38.249Z,90.86
2019-06-10T02:40:36.462Z,91.63
2019-06-10T02:41:36.217Z,91.10
2019-06-10T02:42:35.856Z,91.72
2019-06-10T02:43:37.537Z,91.34
2019-06-10T02:44:37.640Z,92.54
2019-06-10T02:45:37.372Z,92.49
2019-06-10T02:46:36.255Z,93.44
2019-06-10T02:47:37.592Z,93.54
2019-06-10T02:48:34.974Z,93.11
2019-06-10T02:49:51.525Z,93.35
2019-06-10T02:50:36.376Z,92.49
2019-06-10T02:51:35.710Z,92.49
2019-06-10T02:52:38.102Z,92.01
2019-06-10T02:53:36.107Z,92.30
2019-06-10T02:54:35.895Z,93.16
2019-06-10T02:55:35.125Z,93.06
2019-06-10T02:56:36.445Z,92.39
2019-06-10T02:57:39.694Z,92.49
2019-06-10T02:58:38.979Z,93.35
2019-06-10T02:59:36.323Z,93.93
2019-06-10T03:00:42.747Z,94.40
2019-06-10T03:01:37.990Z,94.31
2019-06-10T03:02:36.435Z,93.54
2019-06-10T03:03:42.558Z,94.40
2019-06-10T03:04:37.645Z,94.69
2019-06-10T03:05:40.964Z,94.40
2019-06-10T03:06:39.346Z,94.21
2019-06-10T03:07:35.729Z,94.50
2019-06-10T03:08:36.169Z,94.50
2019-06-10T03:09:35.682Z,94.69
2019-06-10T03:10:37.253Z,94.31
2019-06-10T03:11:37.217Z,94.50
2019-06-10T03:12:35.018Z,94.59
2019-06-10T03:13:35.282Z,94.12
2019-06-10T03:14:35.146Z,93.73
2019-06-10T03:15:35.210Z,94.59
2019-06-10T03:16:35.274Z,95.84
2019-06-10T03:17:35.343Z,94.69
2019-06-10T03:18:35.415Z,94.31
2019-06-10T03:19:46.978Z,94.93
2019-06-10T03:20:35.535Z,94.93
2019-06-10T03:21:35.601Z,95.75
2019-06-10T03:22:35.663Z,95.70
2019-06-10T03:23:35.739Z,96.08
2019-06-10T03:24:35.800Z,96.18
2019-06-10T03:25:35.859Z,95.70
2019-06-10T03:26:35.924Z,95.60
2019-06-10T03:27:35.989Z,95.60
2019-06-10T03:28:36.059Z,95.51
2019-06-10T03:29:36.125Z,95.60
2019-06-10T03:30:47.831Z,95.60
2019-06-10T03:31:41.873Z,96.08
2019-06-10T03:32:40.979Z,96.27
2019-06-10T03:33:41.416Z,97.04
2019-06-10T03:34:41.991Z,96.85
2019-06-10T03:35:36.504Z,96.75
2019-06-10T03:36:36.568Z,96.08
2019-06-10T03:37:36.633Z,95.79
2019-06-10T03:38:37.169Z,96.08
2019-06-10T03:39:36.767Z,94.17
2019-06-10T03:40:36.828Z,93.78
2019-06-10T03:41:36.892Z,93.78
2019-06-10T03:42:36.956Z,94.45
2019-06-10T03:43:37.056Z,93.97
2019-06-10T03:44:37.092Z,93.78
2019-06-10T03:45:37.152Z,93.88
2019-06-10T03:46:37.219Z,93.40
2019-06-10T03:47:37.312Z,92.82
2019-06-10T03:48:37.636Z,93.01
2019-06-10T03:49:49.979Z,93.40
2019-06-10T03:50:37.472Z,92.82
2019-06-10T03:51:37.536Z,92.91
2019-06-10T03:52:37.606Z,93.88
2019-06-10T03:53:37.677Z,94.64
2019-06-10T03:54:37.740Z,95.41
2019-06-10T03:55:37.796Z,95.41
2019-06-10T03:56:37.861Z,96.37
2019-06-10T03:57:37.928Z,95.98
2019-06-10T03:58:38.000Z,96.56
2019-06-10T03:59:38.065Z,97.04
2019-06-10T04:00:38.121Z,95.79
2019-06-10T04:01:38.317Z,95.60
2019-06-10T04:02:38.249Z,95.51
2019-06-10T04:03:38.341Z,95.51
2019-06-10T04:04:38.381Z,95.60
2019-06-10T04:05:38.445Z,96.18
2019-06-10T04:06:38.509Z,95.03
2019-06-10T04:07:38.573Z,94.74
2019-06-10T04:08:38.645Z,95.03
2019-06-10T04:09:38.710Z,95.79
2019-06-10T04:10:38.769Z,94.93
2019-06-10T04:11:38.907Z,94.54
2019-06-10T04:12:38.900Z,94.17
2019-06-10T04:13:38.976Z,93.78
2019-06-10T04:14:39.034Z,94.17
2019-06-10T04:15:39.091Z,93.78
2019-06-10T04:16:39.155Z,95.17
2019-06-10T04:17:39.222Z,95.75
2019-06-10T04:18:39.286Z,95.65
2019-06-10T04:19:39.463Z,95.84
2019-06-10T04:20:39.414Z,95.94
2019-06-10T04:21:39.478Z,96.13
2019-06-10T04:22:39.546Z,95.55
2019-06-10T04:23:42.149Z,94.69
2019-06-10T04:24:39.682Z,95.55
2019-06-10T04:25:39.746Z,95.65
2019-06-10T04:26:39.802Z,95.46
2019-06-10T04:27:42.281Z,95.55
2019-06-10T04:28:39.934Z,94.98
2019-06-10T04:29:42.068Z,95.07
2019-06-10T04:30:40.071Z,94.40
2019-06-10T04:31:42.291Z,95.84
2019-06-10T04:32:40.191Z,96.42
2019-06-10T04:33:42.095Z,96.32
2019-06-10T04:34:42.724Z,96.03
2019-06-10T04:35:42.585Z,96.42
2019-06-10T04:36:42.313Z,95.94
2019-06-10T04:37:42.639Z,96.03
2019-06-10T04:38:42.979Z,96.51
2019-06-10T04:39:42.629Z,96.51
2019-06-10T04:40:42.955Z,97.09
2019-06-10T04:41:42.715Z,97.09
2019-06-10T04:42:43.351Z,96.80
2019-06-10T04:43:43.085Z,96.80
2019-06-10T04:44:42.298Z,97.19
2019-06-10T04:45:42.938Z,97.76
2019-06-10T04:46:42.746Z,98.14
2019-06-10T04:47:43.159Z,98.53
2019-06-10T04:48:42.658Z,98.43
2019-06-10T04:49:42.854Z,98.33
2019-06-10T04:50:46.087Z,97.76
2019-06-10T04:51:43.511Z,97.66
2019-06-10T04:52:43.108Z,97.76
2019-06-10T04:53:43.473Z,97.86
2019-06-10T04:54:42.118Z,97.56
2019-06-10T04:55:43.092Z,97.28
2019-06-10T04:56:42.833Z,97.56
2019-06-10T04:57:43.139Z,96.99
2019-06-10T04:58:43.218Z,97.66
2019-06-10T04:59:42.840Z,97.28
2019-06-10T05:00:42.877Z,96.99
2019-06-10T05:01:42.695Z,95.84
2019-06-10T05:02:43.099Z,95.07
2019-06-10T05:03:43.357Z,96.03
2019-06-10T05:04:42.692Z,96.32
2019-06-10T05:05:43.050Z,97.04
2019-06-10T05:06:42.484Z,95.89
2019-06-10T05:07:42.866Z,95.70
2019-06-10T05:08:42.826Z,95.60
2019-06-10T05:09:42.600Z,95.07
2019-06-10T05:10:42.664Z,95.50
2019-06-10T05:11:43.188Z,94.35
2019-06-10T05:12:43.402Z,94.54
2019-06-10T05:13:43.166Z,94.54
2019-06-10T05:14:43.341Z,94.64
2019-06-10T05:15:43.416Z,95.12
2019-06-10T05:16:43.367Z,94.26
2019-06-10T05:17:43.914Z,94.64
2019-06-10T05:18:43.177Z,94.74
2019-06-10T05:19:43.241Z,95.03
2019-06-10T05:20:53.997Z,94.16
2019-06-10T05:21:43.373Z,93.30
2019-06-10T05:22:43.437Z,93.44
2019-06-10T05:23:43.501Z,92.38
2019-06-10T05:24:43.565Z,91.81
2019-06-10T05:25:43.725Z,92.38
2019-06-10T05:26:43.729Z,91.33
2019-06-10T05:27:43.761Z,91.23
2019-06-10T05:28:43.825Z,91.37
2019-06-10T05:29:43.893Z,90.31
2019-06-10T05:30:43.965Z,90.12
2019-06-10T05:31:44.030Z,90.31
2019-06-10T05:32:44.089Z,90.51
2019-06-10T05:33:44.154Z,90.51
2019-06-10T05:34:44.218Z,90.80
2019-06-10T05:35:44.282Z,90.84
2019-06-10T05:36:44.446Z,90.89
2019-06-10T05:37:44.413Z,90.31
2019-06-10T05:38:44.479Z,90.70
2019-06-10T05:39:44.542Z,91.56
2019-06-10T05:40:44.610Z,91.28
2019-06-10T05:41:44.689Z,91.37
2019-06-10T05:42:44.746Z,91.37
2019-06-10T05:43:44.806Z,91.85
2019-06-10T05:44:44.870Z,91.18
2019-06-10T05:45:44.938Z,91.47
2019-06-10T05:46:45.006Z,91.28
2019-06-10T05:47:45.074Z,91.47
2019-06-10T05:48:45.134Z,91.18
2019-06-10T05:49:45.198Z,91.18
2019-06-10T05:50:59.295Z,91.56
2019-06-10T05:51:45.346Z,91.28
2019-06-10T05:52:45.393Z,90.70
2019-06-10T05:53:46.419Z,90.70
2019-06-10T05:54:45.522Z,91.08
2019-06-10T05:55:45.586Z,89.74
2019-06-10T05:56:45.658Z,89.45
2019-06-10T05:57:45.731Z,88.68
2019-06-10T05:58:45.782Z,87.92
2019-06-10T05:59:45.855Z,87.15
2019-06-10T06:00:45.915Z,87.24
2019-06-10T06:01:45.987Z,86.85
2019-06-10T06:02:46.060Z,87.15
2019-06-10T06:03:46.111Z,87.76
2019-06-10T06:04:46.176Z,86.61
2019-06-10T06:05:46.243Z,87.34
2019-06-10T06:06:46.411Z,87.34
2019-06-10T06:08:01.067Z,87.34
2019-06-10T06:08:46.440Z,86.47
2019-06-10T06:09:46.503Z,86.18
2019-06-10T06:10:46.567Z,86.66
2019-06-10T06:11:46.643Z,87.05
2019-06-10T06:12:46.707Z,87.34
2019-06-10T06:13:46.763Z,86.85
2019-06-10T06:14:46.834Z,86.66
2019-06-10T06:15:46.896Z,87.05
2019-06-10T06:16:46.970Z,87.82
2019-06-10T06:17:47.035Z,86.52
2019-06-10T06:18:47.092Z,87.48
2019-06-10T06:19:47.156Z,86.80
2019-06-10T06:20:47.224Z,86.42
2019-06-10T06:21:47.973Z,85.46
2019-06-10T06:22:47.356Z,85.75
2019-06-10T06:23:47.421Z,85.46
2019-06-10T06:24:47.483Z,85.27
2019-06-10T06:25:47.570Z,84.59
2019-06-10T06:26:47.624Z,84.21
2019-06-10T06:27:47.689Z,84.78
2019-06-10T06:28:47.751Z,84.69
2019-06-10T06:29:47.812Z,84.59
2019-06-10T06:30:47.880Z,84.01
2019-06-10T06:31:47.952Z,83.48
2019-06-10T06:32:48.018Z,83.67
2019-06-10T06:33:48.077Z,83.77
2019-06-10T06:34:48.144Z,83.86
2019-06-10T06:35:48.209Z,83.04
2019-06-10T06:36:48.376Z,82.85
2019-06-10T06:37:48.343Z,82.37
2019-06-10T06:38:48.404Z,82.17
2019-06-10T06:39:48.472Z,83.08
2019-06-10T06:40:48.539Z,81.29
2019-06-10T06:41:48.613Z,80.27
2019-06-10T06:42:48.689Z,78.29
2019-06-10T06:43:48.744Z,76.65
2019-06-10T06:44:48.810Z,76.45
2019-06-10T06:45:48.876Z,76.36
2019-06-10T06:46:48.945Z,76.75
2019-06-10T06:47:49.009Z,77.65
2019-06-10T06:48:49.069Z,76.10
2019-06-10T06:49:49.137Z,75.62
2019-06-10T06:51:01.801Z,75.24
2019-06-10T06:51:55.090Z,74.27
2019-06-10T06:53:19.028Z,74.76
2019-06-10T06:53:55.349Z,74.85
2019-06-10T06:54:49.481Z,74.57
2019-06-10T06:55:53.414Z,74.37
2019-06-10T06:56:49.613Z,74.76
2019-06-10T06:57:49.687Z,73.99
2019-06-10T06:58:52.229Z,73.60
2019-06-10T06:59:49.810Z,74.85
2019-06-10T07:01:01.365Z,74.66
2019-06-10T07:01:52.305Z,75.10
2019-06-10T07:02:52.800Z,76.65
2019-06-10T07:03:50.090Z,75.59
2019-06-10T07:04:52.423Z,75.78
2019-06-10T07:05:50.218Z,76.65
2019-06-10T07:06:53.390Z,77.03
2019-06-10T07:07:52.635Z,78.00
2019-06-10T07:09:01.437Z,76.07
2019-06-10T07:09:52.573Z,75.72
2019-06-10T07:10:52.280Z,75.82
2019-06-10T07:11:52.850Z,75.76
2019-06-10T07:12:52.317Z,75.70
2019-06-10T07:13:53.336Z,75.22
2019-06-10T07:14:52.587Z,74.87
2019-06-10T07:15:53.329Z,73.71
2019-06-10T07:16:52.955Z,72.74
2019-06-10T07:17:52.631Z,72.16
2019-06-10T07:18:53.681Z,72.36
2019-06-10T07:19:52.877Z,71.42
2019-06-10T07:20:53.914Z,70.34
2019-06-10T07:22:08.800Z,68.24
2019-06-10T07:22:53.325Z,67.53
2019-06-10T07:23:52.801Z,65.40
2019-06-10T07:24:52.887Z,66.53
2019-06-10T07:25:53.196Z,66.37
2019-06-10T07:26:54.865Z,64.56
2019-06-10T07:27:52.738Z,63.91
2019-06-10T07:28:53.764Z,64.14
2019-06-10T07:29:52.940Z,63.30
2019-06-10T07:30:55.253Z,64.27
2019-06-10T07:31:53.575Z,64.72
2019-06-10T07:32:52.800Z,65.59
2019-06-10T07:33:52.683Z,65.20
2019-06-10T07:34:52.555Z,64.53
2019-06-10T07:35:52.853Z,64.47
2019-06-10T07:36:52.440Z,66.40
2019-06-10T07:37:52.500Z,67.72
2019-06-10T07:38:53.816Z,67.59
2019-06-10T07:39:52.565Z,67.59
2019-06-10T07:40:53.113Z,68.62
2019-06-10T07:41:53.071Z,68.72
2019-06-10T07:42:53.128Z,69.53
2019-06-10T07:43:53.166Z,69.17
2019-06-10T07:44:53.363Z,67.66
2019-06-10T07:45:53.493Z,66.60
2019-06-10T07:46:53.268Z,66.98
2019-06-10T07:47:53.128Z,66.69
2019-06-10T07:48:56.510Z,66.20
2019-06-10T07:49:53.260Z,66.88
2019-06-10T07:50:53.328Z,67.40
2019-06-10T07:51:53.400Z,65.17
2019-06-10T07:52:53.487Z,64.43
2019-06-10T07:53:53.544Z,64.98
2019-06-10T07:54:53.608Z,65.47
2019-06-10T07:55:53.701Z,66.14
2019-06-10T07:56:54.005Z,67.08
2019-06-10T07:57:53.824Z,66.30
2019-06-10T07:58:53.893Z,66.02
2019-06-10T07:59:53.956Z,66.30
2019-06-10T08:00:54.024Z,66.85
2019-06-10T08:01:55.236Z,67.72
2019-06-10T08:02:54.177Z,68.98
2019-06-10T08:03:54.233Z,68.30
2019-06-10T08:04:54.582Z,68.08
2019-06-10T08:05:54.372Z,69.33
2019-06-10T08:06:54.449Z,70.10
2019-06-10T08:07:54.905Z,69.43
2019-06-10T08:08:54.585Z,68.85
2019-06-10T08:09:54.649Z,69.14
2019-06-10T08:10:54.722Z,68.37
2019-06-10T08:11:54.785Z,69.08
2019-06-10T08:12:54.862Z,67.11
2019-06-10T08:13:54.935Z,67.92
2019-06-10T08:14:54.994Z,66.40
2019-06-10T08:15:55.064Z,63.36
2019-06-10T08:16:55.136Z,61.16
2019-06-10T08:17:55.213Z,61.16
2019-06-10T08:19:20.391Z,59.90
2019-06-10T08:19:55.347Z,60.09
2019-06-10T08:20:55.425Z,60.06
2019-06-10T08:21:55.481Z,60.16
2019-06-10T08:22:57.856Z,60.38
2019-06-10T08:23:55.635Z,60.97
2019-06-10T08:24:55.701Z,60.28
2019-06-10T08:25:57.769Z,59.80
2019-06-10T08:26:55.835Z,60.00
2019-06-10T08:27:55.910Z,60.25
2019-06-10T08:28:55.982Z,58.41
2019-06-10T08:30:14.086Z,59.31
2019-06-10T08:30:56.117Z,57.82
2019-06-10T08:31:56.186Z,57.29
2019-06-10T08:32:56.634Z,56.41
2019-06-10T08:33:56.338Z,55.90
2019-06-10T08:34:56.402Z,56.12
2019-06-10T08:36:00.410Z,54.50
2019-06-10T08:36:56.547Z,56.35
2019-06-10T08:37:56.614Z,56.85
2019-06-10T08:38:56.694Z,57.04
2019-06-10T08:39:56.768Z,57.62
2019-06-10T08:40:56.831Z,57.39
2019-06-10T08:41:56.902Z,57.12
2019-06-10T08:42:56.980Z,55.11
2019-06-10T08:43:57.059Z,54.03
2019-06-10T08:44:59.901Z,54.65
2019-06-10T08:45:57.196Z,55.09
2019-06-10T08:46:57.267Z,52.78
2019-06-10T08:47:57.343Z,52.17
2019-06-10T08:48:57.423Z,52.12
2019-06-10T08:49:57.497Z,52.75
2019-06-10T08:50:57.563Z,53.96
2019-06-10T08:51:57.635Z,55.00
2019-06-10T08:53:12.816Z,55.41
2019-06-10T08:53:57.787Z,56.07
2019-06-10T08:54:57.859Z,55.58
2019-06-10T08:55:57.923Z,54.96
2019-06-10T08:56:57.995Z,54.30
2019-06-10T08:57:58.071Z,53.42
2019-06-10T08:58:58.235Z,52.84
2019-06-10T08:59:58.215Z,53.33
2019-06-10T09:00:58.290Z,53.04
2019-06-10T09:01:58.419Z,53.91
2019-06-10T09:02:58.431Z,54.21
2019-06-10T09:03:58.512Z,53.11
2019-06-10T09:04:58.587Z,53.14
2019-06-10T09:05:58.696Z,53.01
2019-06-10T09:06:58.724Z,53.96
2019-06-10T09:07:58.804Z,54.54
2019-06-10T09:08:58.876Z,53.20
2019-06-10T09:09:58.950Z,54.18
2019-06-10T09:10:59.012Z,53.04
2019-06-10T09:11:59.085Z,53.75
2019-06-10T09:12:59.156Z,53.36
2019-06-10T09:13:59.252Z,51.87
2019-06-10T09:14:59.305Z,52.16
2019-06-10T09:16:10.890Z,52.94
2019-06-10T09:16:59.448Z,52.82
2019-06-10T09:17:59.521Z,52.82
2019-06-10T09:19:02.092Z,51.77
2019-06-10T09:19:59.673Z,53.55
2019-06-10T09:21:02.163Z,51.14
2019-06-10T09:21:59.810Z,50.38
2019-06-10T09:23:15.066Z,49.63
2019-06-10T09:24:03.611Z,48.85
2019-06-10T09:25:02.743Z,48.78
2019-06-10T09:26:00.097Z,48.29
2019-06-10T09:27:02.711Z,47.02
2019-06-10T09:28:02.326Z,48.58
2019-06-10T09:29:02.951Z,48.93
2019-06-10T09:30:02.824Z,49.90
2019-06-10T09:31:03.656Z,49.61
2019-06-10T09:32:02.151Z,48.83
2019-06-10T09:33:03.864Z,50.12
2019-06-10T09:34:03.364Z,48.56
2019-06-10T09:35:03.227Z,48.39
2019-06-10T09:36:03.008Z,48.51
2019-06-10T09:37:03.158Z,47.44
2019-06-10T09:38:03.514Z,46.46
2019-06-10T09:39:03.737Z,47.07
2019-06-10T09:40:03.402Z,46.88
2019-06-10T09:41:05.191Z,46.21
2019-06-10T09:42:05.926Z,47.58
2019-06-10T09:43:02.457Z,46.99
2019-06-10T09:44:03.219Z,46.70
2019-06-10T09:45:02.633Z,47.67
2019-06-10T09:46:03.473Z,46.19
2019-06-10T09:47:03.354Z,47.07
2019-06-10T09:48:03.982Z,46.88
2019-06-10T09:49:02.209Z,47.44
2019-06-10T09:50:03.211Z,46.26
2019-06-10T09:51:02.601Z,46.36
2019-06-10T09:52:03.452Z,46.56
2019-06-10T09:53:03.383Z,46.17
2019-06-10T09:54:06.352Z,47.05
2019-06-10T09:55:03.214Z,48.80
2019-06-10T09:56:04.099Z,49.68
2019-06-10T09:57:02.598Z,47.51
2019-06-10T09:58:03.183Z,48.10
2019-06-10T09:59:03.773Z,48.46
2019-06-10T10:00:03.403Z,48.36
2019-06-10T10:01:03.487Z,51.29
2019-06-10T10:02:06.173Z,49.27
2019-06-10T10:03:03.481Z,48.78
2019-06-10T10:04:02.878Z,49.98
2019-06-10T10:05:03.052Z,49.98
2019-06-10T10:06:11.455Z,51.34
2019-06-10T10:07:03.248Z,48.61
2019-06-10T10:08:03.156Z,48.39
2019-06-10T10:09:04.109Z,48.12
2019-06-10T10:10:04.512Z,47.14
2019-06-10T10:11:03.378Z,47.71
2019-06-10T10:12:03.448Z,48.49
2019-06-10T10:13:03.520Z,48.66
2019-06-10T10:14:08.165Z,48.36
2019-06-10T10:15:22.586Z,48.56
2019-06-10T10:16:03.737Z,48.46
2019-06-10T10:17:04.742Z,48.27
2019-06-10T10:18:03.881Z,47.71
2019-06-10T10:19:05.179Z,48.39
2019-06-10T10:20:04.037Z,49.85
2019-06-10T10:21:04.156Z,49.07
2019-06-10T10:22:04.180Z,50.53
2019-06-10T10:23:04.249Z,50.43
2019-06-10T10:24:09.884Z,49.66
2019-06-10T10:25:04.499Z,48.97
2019-06-10T10:26:04.462Z,50.90
2019-06-10T10:27:08.280Z,51.12
2019-06-10T10:28:04.608Z,48.68
2019-06-10T10:29:05.166Z,48.49
2019-06-10T10:30:04.761Z,49.85
2019-06-10T10:31:04.944Z,49.10
2019-06-10T10:32:04.894Z,48.32
2019-06-10T10:33:04.970Z,48.61
2019-06-10T10:34:05.041Z,49.07
2019-06-10T10:35:05.216Z,48.88
2019-06-10T10:36:05.182Z,48.71
2019-06-10T10:37:05.256Z,49.98
2019-06-10T10:38:05.327Z,48.61
2019-06-10T10:39:05.398Z,47.53
2019-06-10T10:40:05.482Z,49.07
2019-06-10T10:41:05.554Z,49.17
2019-06-10T10:42:05.626Z,48.56
2019-06-10T10:43:23.370Z,49.73
2019-06-10T10:44:05.755Z,49.83
2019-06-10T10:45:05.840Z,49.90
2019-06-10T10:46:06.205Z,51.24
2019-06-10T10:47:05.986Z,53.31
2019-06-10T10:48:06.044Z,50.36
2019-06-10T10:49:06.116Z,52.60
2019-06-10T10:50:06.203Z,52.73
2019-06-10T10:51:06.289Z,51.02
2019-06-10T10:52:06.334Z,51.90
2019-06-10T10:53:06.400Z,54.03
2019-06-10T10:54:24.690Z,52.89
2019-06-10T10:55:07.095Z,51.73
2019-06-10T10:56:06.658Z,51.04
2019-06-10T10:57:06.683Z,50.80
2019-06-10T10:58:06.760Z,52.28
2019-06-10T10:59:06.827Z,52.28
2019-06-10T11:00:06.908Z,53.16
2019-06-10T11:01:06.976Z,52.97
2019-06-10T11:02:07.039Z,52.19
2019-06-10T11:03:07.116Z,53.75
2019-06-10T11:04:07.188Z,55.21
2019-06-10T11:05:07.252Z,54.60
2019-06-10T11:06:07.492Z,54.11
2019-06-10T11:07:07.399Z,55.08
2019-06-10T11:08:07.472Z,55.37
2019-06-10T11:09:07.540Z,55.60
2019-06-10T11:10:07.612Z,55.60
2019-06-10T11:11:07.689Z,54.33
2019-06-10T11:12:07.757Z,53.94
2019-06-10T11:13:07.824Z,53.19
2019-06-10T11:14:07.904Z,54.75
2019-06-10T11:15:07.964Z,54.85
2019-06-10T11:16:08.054Z,54.94
2019-06-10T11:17:08.120Z,52.48
2019-06-10T11:18:08.184Z,53.14
2019-06-10T11:19:08.248Z,54.79
2019-06-10T11:20:08.321Z,55.11
2019-06-10T11:21:08.416Z,54.30
2019-06-10T11:22:08.465Z,53.62
2019-06-10T11:23:08.536Z,52.65
2019-06-10T11:24:08.604Z,54.21
2019-06-10T11:25:08.677Z,54.01
2019-06-10T11:26:08.757Z,55.27
2019-06-10T11:27:08.829Z,54.60
2019-06-10T11:28:08.889Z,53.26
2019-06-10T11:29:08.960Z,52.75
2019-06-10T11:30:09.037Z,54.86
2019-06-10T11:31:09.137Z,56.25
2019-06-10T11:32:09.177Z,55.79
2019-06-10T11:33:09.264Z,55.69
2019-06-10T11:34:09.317Z,52.48
2019-06-10T11:35:09.390Z,52.97
2019-06-10T11:36:09.469Z,54.33
2019-06-10T11:37:09.537Z,54.03
2019-06-10T11:38:09.606Z,55.01
2019-06-10T11:39:09.673Z,54.43
2019-06-10T11:40:09.745Z,53.85
2019-06-10T11:41:09.825Z,55.37
2019-06-10T11:42:09.894Z,56.05
2019-06-10T11:43:09.958Z,54.60
2019-06-10T11:44:10.031Z,53.94
2019-06-10T11:45:10.101Z,55.11
2019-06-10T11:46:12.826Z,53.16
2019-06-10T11:47:12.582Z,54.03
2019-06-10T11:48:10.314Z,53.87
2019-06-10T11:49:12.615Z,53.31
2019-06-10T11:50:12.146Z,50.87
2019-06-10T11:51:12.898Z,51.17
2019-06-10T11:52:12.622Z,53.21
2019-06-10T11:53:12.820Z,53.24
2019-06-10T11:54:12.912Z,52.78
2019-06-10T11:55:16.537Z,54.83
2019-06-10T11:56:13.085Z,51.68
2019-06-10T11:57:12.498Z,52.29
2019-06-10T11:58:11.028Z,52.48
2019-06-10T11:59:13.400Z,51.09
2019-06-10T12:00:14.730Z,51.09
2019-06-10T12:01:12.992Z,50.99
2019-06-10T12:02:13.266Z,51.78
2019-06-10T12:03:13.152Z,52.07
2019-06-10T12:04:12.849Z,53.24
2019-06-10T12:05:13.068Z,53.34
2019-06-10T12:06:13.527Z,52.75
2019-06-10T12:07:12.840Z,52.02
2019-06-10T12:08:13.087Z,51.99
2019-06-10T12:09:13.783Z,52.19
2019-06-10T12:10:12.818Z,53.06
2019-06-10T12:11:12.697Z,55.01
2019-06-10T12:12:12.980Z,55.21
2019-06-10T12:13:13.360Z,54.13
2019-06-10T12:14:12.829Z,55.04
2019-06-10T12:15:12.271Z,54.13
2019-06-10T12:17:24.948Z,55.72
2019-06-10T12:18:13.157Z,54.26
2019-06-10T12:19:12.864Z,54.36
2019-06-10T12:20:13.317Z,54.75
2019-06-10T12:21:13.398Z,54.09
2019-06-10T12:22:13.380Z,53.41
2019-06-10T12:23:13.454Z,54.87
2019-06-10T12:24:12.952Z,53.87
2019-06-10T12:25:31.660Z,52.80
2019-06-10T12:26:13.031Z,51.07
2019-06-10T12:27:13.236Z,49.97
2019-06-10T12:28:13.168Z,50.26
2019-06-10T12:29:13.240Z,50.75
2019-06-10T12:30:14.365Z,51.73
2019-06-10T12:31:13.871Z,50.85
2019-06-10T12:32:13.622Z,52.40
2019-06-10T12:33:21.318Z,51.63
2019-06-10T12:34:13.596Z,49.88
2019-06-10T12:35:13.880Z,50.36
2019-06-10T12:36:13.744Z,50.36
2019-06-10T12:37:15.946Z,49.85
2019-06-10T12:38:13.994Z,51.21
2019-06-10T12:39:17.033Z,53.75
2019-06-10T12:40:14.051Z,53.26
2019-06-10T12:41:14.311Z,52.89
2019-06-10T12:42:14.423Z,53.28
2019-06-10T12:43:14.241Z,52.22
2019-06-10T12:44:14.308Z,51.34
2019-06-10T12:45:14.378Z,52.12
2019-06-10T12:46:14.457Z,53.77
2019-06-10T12:47:14.525Z,53.28
2019-06-10T12:48:14.589Z,52.60
2019-06-10T12:49:18.310Z,51.73
2019-06-10T12:50:14.737Z,50.65
2019-06-10T12:51:14.815Z,50.16
2019-06-10T12:52:14.881Z,51.53
2019-06-10T12:53:14.945Z,53.09
2019-06-10T12:54:15.013Z,53.38